sensor_id;sensor_type;location;lat;lon;timestamp;pressure;altitude;pressure_sealevel;temperature;humidity
25510;BME280;13413;52.336;21.200;2022-10-16T00:01:23;100593.81;;;18.02;58.38
25510;BME280;13413;52.336;21.200;2022-10-16T00:04:44;100591.66;;;18.02;58.36
25510;BME280;13413;52.336;21.200;2022-10-16T00:08:02;100596.33;;;18.00;58.40
25510;BME280;13413;52.336;21.200;2022-10-16T00:11:24;100598.31;;;18.01;58.41
25510;BME280;13413;52.336;21.200;2022-10-16T00:14:44;100596.14;;;18.00;58.42
25510;BME280;13413;52.336;21.200;2022-10-16T00:18:05;100597.11;;;17.97;58.54
25510;BME280;13413;52.336;21.200;2022-10-16T00:21:44;100597.24;;;17.95;58.45
25510;BME280;13413;52.336;21.200;2022-10-16T00:25:04;100591.22;;;17.95;58.55
25510;BME280;13413;52.336;21.200;2022-10-16T00:31:43;100596.21;;;17.95;58.51
25510;BME280;13413;52.336;21.200;2022-10-16T00:35:02;100592.58;;;17.90;58.62
25510;BME280;13413;52.336;21.200;2022-10-16T00:38:21;100590.53;;;17.92;58.56
25510;BME280;13413;52.336;21.200;2022-10-16T00:41:40;100593.83;;;17.93;58.64
25510;BME280;13413;52.336;21.200;2022-10-16T00:45:00;100595.69;;;17.92;58.59
25510;BME280;13413;52.336;21.200;2022-10-16T00:48:21;100596.84;;;17.94;58.61
25510;BME280;13413;52.336;21.200;2022-10-16T00:51:43;100599.48;;;17.92;58.66
25510;BME280;13413;52.336;21.200;2022-10-16T00:55:06;100610.09;;;17.89;58.68
25510;BME280;13413;52.336;21.200;2022-10-16T01:02:02;100625.68;;;17.77;59.12
25510;BME280;13413;52.336;21.200;2022-10-16T01:05:23;100627.30;;;17.77;59.46
25510;BME280;13413;52.336;21.200;2022-10-16T01:08:49;100625.05;;;17.67;60.06
25510;BME280;13413;52.336;21.200;2022-10-16T01:12:14;100627.50;;;17.63;60.22
25510;BME280;13413;52.336;21.200;2022-10-16T01:15:44;100630.34;;;17.52;60.78
25510;BME280;13413;52.336;21.200;2022-10-16T01:19:24;100637.98;;;17.41;61.31
25510;BME280;13413;52.336;21.200;2022-10-16T01:23:14;100627.02;;;17.30;62.13
25510;BME280;13413;52.336;21.200;2022-10-16T01:26:42;100626.59;;;17.32;61.83
25510;BME280;13413;52.336;21.200;2022-10-16T01:30:09;100624.75;;;17.26;62.17
25510;BME280;13413;52.336;21.200;2022-10-16T01:33:33;100623.29;;;17.23;62.17
25510;BME280;13413;52.336;21.200;2022-10-16T01:37:14;100625.84;;;17.16;62.48
25510;BME280;13413;52.336;21.200;2022-10-16T01:40:36;100630.90;;;17.15;62.59
25510;BME280;13413;52.336;21.200;2022-10-16T01:44:00;100635.23;;;17.16;62.66
25510;BME280;13413;52.336;21.200;2022-10-16T01:47:21;100634.90;;;17.17;62.71
25510;BME280;13413;52.336;21.200;2022-10-16T01:50:56;100636.75;;;17.20;62.85
25510;BME280;13413;52.336;21.200;2022-10-16T01:54:18;100638.27;;;17.18;62.87
25510;BME280;13413;52.336;21.200;2022-10-16T01:57:41;100646.27;;;17.19;62.92
25510;BME280;13413;52.336;21.200;2022-10-16T02:01:04;100643.02;;;17.19;63.01
25510;BME280;13413;52.336;21.200;2022-10-16T02:04:28;100633.75;;;17.17;63.07
25510;BME280;13413;52.336;21.200;2022-10-16T02:07:50;100634.78;;;17.16;63.19
25510;BME280;13413;52.336;21.200;2022-10-16T02:11:09;100635.07;;;17.15;63.26
25510;BME280;13413;52.336;21.200;2022-10-16T02:14:29;100634.17;;;17.11;63.40
25510;BME280;13413;52.336;21.200;2022-10-16T02:17:48;100643.70;;;17.05;63.56
25510;BME280;13413;52.336;21.200;2022-10-16T02:21:13;100640.04;;;17.05;63.63
25510;BME280;13413;52.336;21.200;2022-10-16T02:24:42;100638.33;;;16.96;63.84
25510;BME280;13413;52.336;21.200;2022-10-16T02:28:00;100629.36;;;16.92;64.03
25510;BME280;13413;52.336;21.200;2022-10-16T02:31:27;100625.65;;;16.90;64.13
25510;BME280;13413;52.336;21.200;2022-10-16T02:34:47;100619.64;;;16.91;64.07
25510;BME280;13413;52.336;21.200;2022-10-16T02:38:09;100627.45;;;16.94;64.05
25510;BME280;13413;52.336;21.200;2022-10-16T02:41:29;100628.13;;;16.90;64.31
25510;BME280;13413;52.336;21.200;2022-10-16T02:44:50;100630.25;;;16.83;64.61
25510;BME280;13413;52.336;21.200;2022-10-16T02:48:10;100631.74;;;16.82;64.62
25510;BME280;13413;52.336;21.200;2022-10-16T02:51:29;100627.70;;;16.74;64.73
25510;BME280;13413;52.336;21.200;2022-10-16T02:54:48;100628.20;;;16.78;64.71
25510;BME280;13413;52.336;21.200;2022-10-16T02:58:07;100624.98;;;16.82;64.49
25510;BME280;13413;52.336;21.200;2022-10-16T03:01:27;100628.63;;;16.85;64.45
25510;BME280;13413;52.336;21.200;2022-10-16T03:04:46;100632.06;;;16.81;64.52
25510;BME280;13413;52.336;21.200;2022-10-16T03:08:07;100638.54;;;16.81;64.49
25510;BME280;13413;52.336;21.200;2022-10-16T03:11:26;100643.73;;;16.82;64.58
25510;BME280;13413;52.336;21.200;2022-10-16T03:14:46;100645.46;;;16.80;64.60
25510;BME280;13413;52.336;21.200;2022-10-16T03:18:04;100654.47;;;16.70;64.86
25510;BME280;13413;52.336;21.200;2022-10-16T03:21:25;100653.23;;;16.67;64.89
25510;BME280;13413;52.336;21.200;2022-10-16T03:24:44;100656.58;;;16.67;64.96
25510;BME280;13413;52.336;21.200;2022-10-16T03:28:04;100661.48;;;16.67;64.99
25510;BME280;13413;52.336;21.200;2022-10-16T03:31:22;100664.97;;;16.69;64.89
25510;BME280;13413;52.336;21.200;2022-10-16T03:34:41;100669.84;;;16.67;64.94
25510;BME280;13413;52.336;21.200;2022-10-16T03:38:01;100667.98;;;16.73;64.78
25510;BME280;13413;52.336;21.200;2022-10-16T03:41:20;100671.76;;;16.77;64.65
25510;BME280;13413;52.336;21.200;2022-10-16T03:44:40;100668.59;;;16.79;64.61
25510;BME280;13413;52.336;21.200;2022-10-16T03:48:13;100672.25;;;16.81;64.59
25510;BME280;13413;52.336;21.200;2022-10-16T03:51:33;100671.23;;;16.78;64.57
25510;BME280;13413;52.336;21.200;2022-10-16T03:54:52;100671.88;;;16.84;64.39
25510;BME280;13413;52.336;21.200;2022-10-16T03:58:11;100673.77;;;16.95;64.10
25510;BME280;13413;52.336;21.200;2022-10-16T04:01:30;100682.05;;;16.93;64.02
25510;BME280;13413;52.336;21.200;2022-10-16T04:04:49;100678.23;;;16.87;64.12
25510;BME280;13413;52.336;21.200;2022-10-16T04:08:09;100681.35;;;16.90;64.00
25510;BME280;13413;52.336;21.200;2022-10-16T04:11:27;100677.44;;;16.88;64.03
25510;BME280;13413;52.336;21.200;2022-10-16T04:14:47;100675.46;;;16.85;64.07
25510;BME280;13413;52.336;21.200;2022-10-16T04:18:07;100665.95;;;16.80;64.13
25510;BME280;13413;52.336;21.200;2022-10-16T04:21:25;100664.65;;;16.70;64.33
25510;BME280;13413;52.336;21.200;2022-10-16T04:24:44;100666.17;;;16.68;64.38
25510;BME280;13413;52.336;21.200;2022-10-16T04:28:05;100673.42;;;16.66;64.41
25510;BME280;13413;52.336;21.200;2022-10-16T04:31:44;100677.30;;;16.57;64.41
25510;BME280;13413;52.336;21.200;2022-10-16T04:35:02;100675.94;;;16.62;64.26
25510;BME280;13413;52.336;21.200;2022-10-16T04:38:21;100684.38;;;16.74;63.77
25510;BME280;13413;52.336;21.200;2022-10-16T04:41:41;100697.23;;;16.75;63.70
25510;BME280;13413;52.336;21.200;2022-10-16T04:45:02;100694.98;;;16.65;63.72
25510;BME280;13413;52.336;21.200;2022-10-16T04:48:22;100692.96;;;16.67;63.63
25510;BME280;13413;52.336;21.200;2022-10-16T04:51:41;100690.65;;;16.62;63.65
25510;BME280;13413;52.336;21.200;2022-10-16T04:55:02;100689.88;;;16.55;63.77
25510;BME280;13413;52.336;21.200;2022-10-16T04:58:20;100693.14;;;16.46;63.89
25510;BME280;13413;52.336;21.200;2022-10-16T05:01:41;100696.92;;;16.36;64.03
25510;BME280;13413;52.336;21.200;2022-10-16T05:05:01;100699.40;;;16.27;64.24
25510;BME280;13413;52.336;21.200;2022-10-16T05:08:21;100707.17;;;16.33;64.10
25510;BME280;13413;52.336;21.200;2022-10-16T05:11:40;100711.25;;;16.35;63.99
25510;BME280;13413;52.336;21.200;2022-10-16T05:14:59;100709.05;;;16.31;64.02
25510;BME280;13413;52.336;21.200;2022-10-16T05:18:19;100711.77;;;16.29;64.01
25510;BME280;13413;52.336;21.200;2022-10-16T05:21:38;100715.14;;;16.28;64.04
25510;BME280;13413;52.336;21.200;2022-10-16T05:24:57;100718.11;;;16.31;64.05
25510;BME280;13413;52.336;21.200;2022-10-16T05:28:30;100721.75;;;16.33;63.98
25510;BME280;13413;52.336;21.200;2022-10-16T05:31:52;100731.48;;;16.34;64.04
25510;BME280;13413;52.336;21.200;2022-10-16T05:35:11;100739.48;;;16.35;64.09
25510;BME280;13413;52.336;21.200;2022-10-16T05:38:32;100741.61;;;16.40;64.11
25510;BME280;13413;52.336;21.200;2022-10-16T05:41:52;100739.98;;;16.45;64.04
25510;BME280;13413;52.336;21.200;2022-10-16T05:45:11;100745.54;;;16.47;64.05
25510;BME280;13413;52.336;21.200;2022-10-16T05:48:31;100747.93;;;16.50;64.03
25510;BME280;13413;52.336;21.200;2022-10-16T05:51:51;100742.24;;;16.52;63.97
25510;BME280;13413;52.336;21.200;2022-10-16T05:55:10;100742.35;;;16.39;64.17
25510;BME280;13413;52.336;21.200;2022-10-16T05:58:32;100734.64;;;16.36;64.25
25510;BME280;13413;52.336;21.200;2022-10-16T06:01:52;100736.83;;;16.35;64.33
25510;BME280;13413;52.336;21.200;2022-10-16T06:05:11;100742.14;;;16.36;64.23
25510;BME280;13413;52.336;21.200;2022-10-16T06:08:31;100747.16;;;16.38;64.19
25510;BME280;13413;52.336;21.200;2022-10-16T06:11:50;100751.20;;;16.33;64.35
25510;BME280;13413;52.336;21.200;2022-10-16T06:15:10;100761.13;;;16.35;64.33
25510;BME280;13413;52.336;21.200;2022-10-16T06:18:30;100768.39;;;16.42;64.33
25510;BME280;13413;52.336;21.200;2022-10-16T06:21:51;100770.63;;;16.48;64.33
25510;BME280;13413;52.336;21.200;2022-10-16T06:25:11;100769.93;;;16.53;64.30
25510;BME280;13413;52.336;21.200;2022-10-16T06:28:30;100777.88;;;16.60;64.16
25510;BME280;13413;52.336;21.200;2022-10-16T06:31:50;100776.80;;;16.59;64.15
25510;BME280;13413;52.336;21.200;2022-10-16T06:35:09;100770.40;;;16.70;63.99
25510;BME280;13413;52.336;21.200;2022-10-16T06:42:00;100783.27;;;16.92;63.84
25510;BME280;13413;52.336;21.200;2022-10-16T06:45:21;100788.04;;;16.94;63.62
25510;BME280;13413;52.336;21.200;2022-10-16T06:48:40;100793.69;;;17.07;63.32
25510;BME280;13413;52.336;21.200;2022-10-16T06:51:58;100792.23;;;17.15;63.10
25510;BME280;13413;52.336;21.200;2022-10-16T06:55:18;100795.62;;;17.24;63.04
25510;BME280;13413;52.336;21.200;2022-10-16T06:58:38;100789.95;;;17.32;62.90
25510;BME280;13413;52.336;21.200;2022-10-16T07:01:56;100784.48;;;17.45;62.76
25510;BME280;13413;52.336;21.200;2022-10-16T07:05:15;100782.94;;;17.53;62.63
25510;BME280;13413;52.336;21.200;2022-10-16T07:08:48;100789.96;;;17.61;61.97
25510;BME280;13413;52.336;21.200;2022-10-16T07:12:08;100806.77;;;17.74;61.93
25510;BME280;13413;52.336;21.200;2022-10-16T07:15:28;100807.46;;;17.78;61.50
25510;BME280;13413;52.336;21.200;2022-10-16T07:18:47;100814.61;;;17.96;61.66
25510;BME280;13413;52.336;21.200;2022-10-16T07:22:07;100820.23;;;18.05;61.23
25510;BME280;13413;52.336;21.200;2022-10-16T07:25:27;100831.73;;;18.09;60.99
25510;BME280;13413;52.336;21.200;2022-10-16T07:28:46;100831.66;;;18.00;60.79
25510;BME280;13413;52.336;21.200;2022-10-16T07:32:05;100832.98;;;18.01;60.97
25510;BME280;13413;52.336;21.200;2022-10-16T07:35:24;100827.20;;;17.99;60.85
25510;BME280;13413;52.336;21.200;2022-10-16T07:38:45;100817.85;;;17.93;60.83
25510;BME280;13413;52.336;21.200;2022-10-16T07:42:04;100817.55;;;17.98;60.81
25510;BME280;13413;52.336;21.200;2022-10-16T07:45:25;100814.11;;;17.98;60.81
25510;BME280;13413;52.336;21.200;2022-10-16T07:48:45;100817.56;;;18.01;60.66
25510;BME280;13413;52.336;21.200;2022-10-16T07:52:05;100817.41;;;18.13;60.74
25510;BME280;13413;52.336;21.200;2022-10-16T07:55:24;100814.02;;;18.35;60.21
25510;BME280;13413;52.336;21.200;2022-10-16T07:58:44;100810.20;;;18.40;59.97
25510;BME280;13413;52.336;21.200;2022-10-16T08:02:05;100810.75;;;18.51;59.88
25510;BME280;13413;52.336;21.200;2022-10-16T08:05:25;100805.87;;;18.63;59.91
25510;BME280;13413;52.336;21.200;2022-10-16T08:08:58;100799.95;;;18.64;59.62
25510;BME280;13413;52.336;21.200;2022-10-16T08:12:17;100791.41;;;18.79;59.61
25510;BME280;13413;52.336;21.200;2022-10-16T08:15:37;100791.98;;;18.74;59.23
25510;BME280;13413;52.336;21.200;2022-10-16T08:18:56;100795.61;;;18.69;59.33
25510;BME280;13413;52.336;21.200;2022-10-16T08:22:16;100804.02;;;18.73;59.75
25510;BME280;13413;52.336;21.200;2022-10-16T08:25:37;100826.23;;;18.84;59.69
25510;BME280;13413;52.336;21.200;2022-10-16T08:28:56;100838.41;;;18.96;59.39
25510;BME280;13413;52.336;21.200;2022-10-16T08:32:15;100839.73;;;19.09;59.37
25510;BME280;13413;52.336;21.200;2022-10-16T08:35:35;100835.49;;;19.21;59.20
25510;BME280;13413;52.336;21.200;2022-10-16T08:38:55;100839.92;;;19.35;59.08
25510;BME280;13413;52.336;21.200;2022-10-16T08:42:23;100838.72;;;19.47;58.72
25510;BME280;13413;52.336;21.200;2022-10-16T08:49:25;100845.66;;;19.62;58.33
25510;BME280;13413;52.336;21.200;2022-10-16T08:52:45;100845.45;;;19.70;58.40
25510;BME280;13413;52.336;21.200;2022-10-16T08:56:05;100849.73;;;19.88;58.03
25510;BME280;13413;52.336;21.200;2022-10-16T08:59:26;100845.45;;;20.02;57.87
25510;BME280;13413;52.336;21.200;2022-10-16T09:02:56;100855.10;;;20.10;57.33
25510;BME280;13413;52.336;21.200;2022-10-16T09:06:41;100858.04;;;20.11;57.24
25510;BME280;13413;52.336;21.200;2022-10-16T09:10:11;100862.64;;;20.10;57.05
25510;BME280;13413;52.336;21.200;2022-10-16T09:13:40;100861.05;;;20.15;56.90
25510;BME280;13413;52.336;21.200;2022-10-16T09:17:07;100854.86;;;20.37;56.78
25510;BME280;13413;52.336;21.200;2022-10-16T09:20:39;100852.84;;;20.70;56.22
25510;BME280;13413;52.336;21.200;2022-10-16T09:24:10;100854.09;;;20.92;55.81
25510;BME280;13413;52.336;21.200;2022-10-16T09:27:30;100841.45;;;21.12;55.18
25510;BME280;13413;52.336;21.200;2022-10-16T09:30:49;100833.17;;;21.32;54.70
25510;BME280;13413;52.336;21.200;2022-10-16T09:34:20;100835.66;;;21.46;53.82
25510;BME280;13413;52.336;21.200;2022-10-16T09:37:44;100842.66;;;21.49;54.31
25510;BME280;13413;52.336;21.200;2022-10-16T09:41:18;100841.97;;;21.64;53.95
25510;BME280;13413;52.336;21.200;2022-10-16T09:44:40;100842.02;;;21.34;53.81
25510;BME280;13413;52.336;21.200;2022-10-16T09:48:02;100837.46;;;21.23;54.15
25510;BME280;13413;52.336;21.200;2022-10-16T09:51:32;100850.66;;;21.27;54.47
25510;BME280;13413;52.336;21.200;2022-10-16T09:54:54;100856.99;;;21.19;54.29
25510;BME280;13413;52.336;21.200;2022-10-16T09:58:14;100852.08;;;21.03;54.58
25510;BME280;13413;52.336;21.200;2022-10-16T10:01:39;100849.61;;;20.94;54.62
25510;BME280;13413;52.336;21.200;2022-10-16T10:05:01;100851.86;;;21.04;54.83
25510;BME280;13413;52.336;21.200;2022-10-16T10:08:20;100850.84;;;21.23;54.92
25510;BME280;13413;52.336;21.200;2022-10-16T10:11:59;100848.44;;;21.40;54.79
25510;BME280;13413;52.336;21.200;2022-10-16T10:15:19;100849.02;;;21.54;54.86
25510;BME280;13413;52.336;21.200;2022-10-16T10:18:39;100852.44;;;21.57;54.38
25510;BME280;13413;52.336;21.200;2022-10-16T10:21:59;100849.80;;;21.57;54.36
25510;BME280;13413;52.336;21.200;2022-10-16T10:25:23;100849.29;;;21.68;54.52
25510;BME280;13413;52.336;21.200;2022-10-16T10:28:54;100847.61;;;21.82;54.20
25510;BME280;13413;52.336;21.200;2022-10-16T11:53:23;100825.60;;;23.07;53.46
25510;BME280;13413;52.336;21.200;2022-10-16T11:56:44;100826.27;;;23.33;53.11
25510;BME280;13413;52.336;21.200;2022-10-16T12:00:22;100821.16;;;23.48;53.11
25510;BME280;13413;52.336;21.200;2022-10-16T12:03:45;100815.27;;;23.48;52.18
25510;BME280;13413;52.336;21.200;2022-10-16T12:07:07;100812.31;;;23.50;52.59
25510;BME280;13413;52.336;21.200;2022-10-16T12:10:23;100818.02;;;23.52;52.08
25510;BME280;13413;52.336;21.200;2022-10-16T12:13:49;100823.06;;;23.39;51.61
25510;BME280;13413;52.336;21.200;2022-10-16T12:17:36;100827.96;;;23.37;51.74
25510;BME280;13413;52.336;21.200;2022-10-16T12:21:04;100829.80;;;23.30;51.63
25510;BME280;13413;52.336;21.200;2022-10-16T12:24:39;100836.39;;;23.26;51.44
25510;BME280;13413;52.336;21.200;2022-10-16T12:28:03;100839.58;;;23.18;51.51
25510;BME280;13413;52.336;21.200;2022-10-16T12:31:23;100843.17;;;23.27;51.60
25510;BME280;13413;52.336;21.200;2022-10-16T12:34:57;100839.23;;;23.31;51.39
25510;BME280;13413;52.336;21.200;2022-10-16T12:38:37;100845.58;;;23.59;51.07
25510;BME280;13413;52.336;21.200;2022-10-16T12:42:06;100839.61;;;23.69;50.49
25510;BME280;13413;52.336;21.200;2022-10-16T12:45:45;100845.73;;;23.73;50.45
25510;BME280;13413;52.336;21.200;2022-10-16T12:49:22;100848.65;;;23.80;50.39
25510;BME280;13413;52.336;21.200;2022-10-16T12:53:02;100848.52;;;23.83;50.30
25510;BME280;13413;52.336;21.200;2022-10-16T12:56:46;100859.42;;;23.79;50.13
25510;BME280;13413;52.336;21.200;2022-10-16T13:00:23;100866.95;;;23.53;50.27
25510;BME280;13413;52.336;21.200;2022-10-16T13:04:17;100864.84;;;23.34;50.40
25510;BME280;13413;52.336;21.200;2022-10-16T13:07:51;100853.38;;;23.25;50.72
25510;BME280;13413;52.336;21.200;2022-10-16T13:11:17;100855.88;;;23.19;50.81
25510;BME280;13413;52.336;21.200;2022-10-16T13:15:09;100855.35;;;23.13;50.81
25510;BME280;13413;52.336;21.200;2022-10-16T13:18:55;100856.20;;;23.32;50.83
25510;BME280;13413;52.336;21.200;2022-10-16T13:22:35;100866.38;;;23.35;50.67
25510;BME280;13413;52.336;21.200;2022-10-16T13:26:12;100869.53;;;23.29;50.85
25510;BME280;13413;52.336;21.200;2022-10-16T13:29:54;100872.75;;;23.27;50.87
25510;BME280;13413;52.336;21.200;2022-10-16T13:33:24;100877.08;;;23.17;50.90
25510;BME280;13413;52.336;21.200;2022-10-16T13:36:53;100874.17;;;23.02;51.21
25510;BME280;13413;52.336;21.200;2022-10-16T13:40:25;100875.09;;;23.04;51.20
25510;BME280;13413;52.336;21.200;2022-10-16T13:43:47;100876.87;;;23.04;51.38
25510;BME280;13413;52.336;21.200;2022-10-16T13:47:16;100876.92;;;22.86;51.52
25510;BME280;13413;52.336;21.200;2022-10-16T13:50:37;100882.02;;;22.78;51.80
25510;BME280;13413;52.336;21.200;2022-10-16T13:53:58;100883.98;;;22.75;51.99
25510;BME280;13413;52.336;21.200;2022-10-16T13:57:18;100886.10;;;22.66;52.22
25510;BME280;13413;52.336;21.200;2022-10-16T14:00:42;100882.61;;;22.64;52.37
25510;BME280;13413;52.336;21.200;2022-10-16T14:04:33;100877.23;;;22.61;52.47
25510;BME280;13413;52.336;21.200;2022-10-16T14:07:54;100875.84;;;22.56;52.58
25510;BME280;13413;52.336;21.200;2022-10-16T14:11:19;100863.25;;;22.51;52.80
25510;BME280;13413;52.336;21.200;2022-10-16T14:14:54;100876.31;;;22.46;53.07
25510;BME280;13413;52.336;21.200;2022-10-16T14:18:29;100879.42;;;22.43;53.29
25510;BME280;13413;52.336;21.200;2022-10-16T14:21:48;100878.27;;;22.42;53.35
25510;BME280;13413;52.336;21.200;2022-10-16T14:25:23;100878.40;;;22.37;53.59
25510;BME280;13413;52.336;21.200;2022-10-16T14:29:09;100876.42;;;22.31;53.66
25510;BME280;13413;52.336;21.200;2022-10-16T14:32:41;100892.23;;;22.29;53.85
25510;BME280;13413;52.336;21.200;2022-10-16T14:40:33;100899.91;;;22.37;53.87
25510;BME280;13413;52.336;21.200;2022-10-16T14:43:56;100901.58;;;22.29;54.04
25510;BME280;13413;52.336;21.200;2022-10-16T14:47:27;100908.30;;;22.25;54.33
25510;BME280;13413;52.336;21.200;2022-10-16T14:50:50;100908.77;;;22.27;54.31
25510;BME280;13413;52.336;21.200;2022-10-16T14:54:10;100902.48;;;22.23;54.40
25510;BME280;13413;52.336;21.200;2022-10-16T14:57:37;100901.65;;;22.19;54.54
25510;BME280;13413;52.336;21.200;2022-10-16T15:00:58;100906.53;;;22.20;54.63
25510;BME280;13413;52.336;21.200;2022-10-16T15:04:33;100904.09;;;22.20;54.68
25510;BME280;13413;52.336;21.200;2022-10-16T15:07:53;100909.34;;;22.22;54.72
25510;BME280;13413;52.336;21.200;2022-10-16T15:11:14;100903.39;;;22.17;54.87
25510;BME280;13413;52.336;21.200;2022-10-16T15:18:22;100901.39;;;22.09;55.31
25510;BME280;13413;52.336;21.200;2022-10-16T15:21:41;100907.73;;;22.04;55.41
25510;BME280;13413;52.336;21.200;2022-10-16T15:25:32;100905.32;;;22.01;55.55
25510;BME280;13413;52.336;21.200;2022-10-16T15:28:51;100910.09;;;21.93;55.76
25510;BME280;13413;52.336;21.200;2022-10-16T15:32:11;100910.64;;;21.90;55.88
25510;BME280;13413;52.336;21.200;2022-10-16T15:35:38;100915.95;;;21.85;55.88
25510;BME280;13413;52.336;21.200;2022-10-16T15:38:58;100913.14;;;21.78;56.05
25510;BME280;13413;52.336;21.200;2022-10-16T15:42:18;100915.83;;;21.73;56.27
25510;BME280;13413;52.336;21.200;2022-10-16T15:45:38;100916.77;;;21.72;56.26
25510;BME280;13413;52.336;21.200;2022-10-16T15:48:59;100921.20;;;21.79;56.19
25510;BME280;13413;52.336;21.200;2022-10-16T15:52:19;100924.27;;;21.85;56.10
25510;BME280;13413;52.336;21.200;2022-10-16T15:55:46;100926.64;;;21.85;56.08
25510;BME280;13413;52.336;21.200;2022-10-16T15:59:07;100929.36;;;21.83;56.17
25510;BME280;13413;52.336;21.200;2022-10-16T16:02:34;100928.68;;;21.75;56.33
25510;BME280;13413;52.336;21.200;2022-10-16T16:05:54;100933.02;;;21.71;56.44
25510;BME280;13413;52.336;21.200;2022-10-16T16:19:46;100945.23;;;21.60;56.68
25510;BME280;13413;52.336;21.200;2022-10-16T16:23:06;100948.52;;;21.54;56.84
25510;BME280;13413;52.336;21.200;2022-10-16T16:26:27;100950.80;;;21.47;56.91
25510;BME280;13413;52.336;21.200;2022-10-16T16:29:48;100956.80;;;21.45;57.02
25510;BME280;13413;52.336;21.200;2022-10-16T16:40:21;100974.84;;;21.35;57.31
25510;BME280;13413;52.336;21.200;2022-10-16T16:43:41;100984.79;;;21.33;57.41
25510;BME280;13413;52.336;21.200;2022-10-16T16:47:01;100983.83;;;21.24;57.67
25510;BME280;13413;52.336;21.200;2022-10-16T16:50:20;100987.52;;;21.22;57.70
25510;BME280;13413;52.336;21.200;2022-10-16T16:53:54;100994.34;;;21.19;57.81
25510;BME280;13413;52.336;21.200;2022-10-16T16:57:14;101000.77;;;21.19;57.83
25510;BME280;13413;52.336;21.200;2022-10-16T17:14:14;101007.63;;;20.95;58.36
25510;BME280;13413;52.336;21.200;2022-10-16T17:17:35;101010.48;;;20.91;58.47
25510;BME280;13413;52.336;21.200;2022-10-16T17:20:56;101019.92;;;20.97;58.39
25510;BME280;13413;52.336;21.200;2022-10-16T17:24:18;101028.48;;;20.98;58.29
25510;BME280;13413;52.336;21.200;2022-10-16T17:39:10;101037.82;;;20.68;59.02
25510;BME280;13413;52.336;21.200;2022-10-16T17:42:30;101043.50;;;20.61;59.11
25510;BME280;13413;52.336;21.200;2022-10-16T17:45:50;101047.36;;;20.57;59.22
25510;BME280;13413;52.336;21.200;2022-10-16T17:49:10;101052.41;;;20.55;59.30
25510;BME280;13413;52.336;21.200;2022-10-16T17:52:30;101062.48;;;20.55;59.31
25510;BME280;13413;52.336;21.200;2022-10-16T17:55:50;101064.93;;;20.47;59.55
25510;BME280;13413;52.336;21.200;2022-10-16T17:59:23;101063.23;;;20.35;59.79
25510;BME280;13413;52.336;21.200;2022-10-16T18:02:43;101060.82;;;20.28;59.95
25510;BME280;13413;52.336;21.200;2022-10-16T18:06:02;101062.30;;;20.20;60.25
25510;BME280;13413;52.336;21.200;2022-10-16T18:09:35;101063.68;;;20.13;60.36
25510;BME280;13413;52.336;21.200;2022-10-16T18:12:55;101067.02;;;20.10;60.52
25510;BME280;13413;52.336;21.200;2022-10-16T18:16:15;101068.52;;;20.10;60.60
25510;BME280;13413;52.336;21.200;2022-10-16T18:19:43;101067.47;;;20.08;60.70
25510;BME280;13413;52.336;21.200;2022-10-16T18:23:16;101063.36;;;20.13;60.67
25510;BME280;13413;52.336;21.200;2022-10-16T18:39:48;101071.56;;;20.03;61.25
25510;BME280;13413;52.336;21.200;2022-10-16T18:43:07;101078.19;;;20.04;61.24
25510;BME280;13413;52.336;21.200;2022-10-16T18:46:30;101082.84;;;20.02;61.41
25510;BME280;13413;52.336;21.200;2022-10-16T18:50:03;101084.69;;;19.98;61.62
25510;BME280;13413;52.336;21.200;2022-10-16T19:00:21;101092.81;;;19.88;61.75
25510;BME280;13413;52.336;21.200;2022-10-16T19:03:42;101104.44;;;19.83;61.91
25510;BME280;13413;52.336;21.200;2022-10-16T19:07:01;101105.48;;;19.78;62.05
25510;BME280;13413;52.336;21.200;2022-10-16T19:10:27;101106.23;;;19.71;62.24
25510;BME280;13413;52.336;21.200;2022-10-16T19:14:00;101116.94;;;19.66;62.31
25510;BME280;13413;52.336;21.200;2022-10-16T19:17:19;101125.06;;;19.66;62.43
25510;BME280;13413;52.336;21.200;2022-10-16T19:20:47;101131.15;;;19.63;62.41
25510;BME280;13413;52.336;21.200;2022-10-16T19:24:21;101135.11;;;19.59;62.56
25510;BME280;13413;52.336;21.200;2022-10-16T19:27:47;101136.64;;;19.55;62.63
25510;BME280;13413;52.336;21.200;2022-10-16T19:31:08;101134.83;;;19.51;62.67
25510;BME280;13413;52.336;21.200;2022-10-16T19:34:42;101141.14;;;19.41;62.87
25510;BME280;13413;52.336;21.200;2022-10-16T19:38:15;101145.61;;;19.32;63.06
25510;BME280;13413;52.336;21.200;2022-10-16T19:45:30;101149.44;;;19.26;63.27
25510;BME280;13413;52.336;21.200;2022-10-16T19:48:54;101148.94;;;19.17;63.39
25510;BME280;13413;52.336;21.200;2022-10-16T19:52:28;101149.29;;;19.10;63.66
25510;BME280;13413;52.336;21.200;2022-10-16T19:55:52;101153.97;;;19.07;63.73
25510;BME280;13413;52.336;21.200;2022-10-16T19:59:24;101154.48;;;19.06;63.77
25510;BME280;13413;52.336;21.200;2022-10-16T20:02:58;101157.13;;;19.02;63.93
25510;BME280;13413;52.336;21.200;2022-10-16T20:06:18;101160.66;;;19.00;63.99
25510;BME280;13413;52.336;21.200;2022-10-16T20:09:38;101161.48;;;18.95;64.13
25510;BME280;13413;52.336;21.200;2022-10-16T20:12:58;101167.29;;;18.91;64.24
25510;BME280;13413;52.336;21.200;2022-10-16T20:16:18;101169.48;;;18.88;64.45
25510;BME280;13413;52.336;21.200;2022-10-16T20:19:59;101169.36;;;18.88;64.76
25510;BME280;13413;52.336;21.200;2022-10-16T20:23:19;101178.60;;;18.87;64.60